Airfield :
LOGIN :

Register | Disclaimer

   EN    FR    IT 

 










Legend :    VFR   Marginal VFR   IFR   Intensive IFR   Very Intensive IFR
Visi :
Ceiling :
>= 8 km
>= 3000ft
5 to 8 km
1000 to 3000 ft
1500m to 5 km
500 to 1000 ft
800 to 1500m
200 to 500 ft
< 800m
< 200 ft
Symbols :   Thunderstorms  Fog  Heavy snow  Heavy precipitations  Wind > 20 kt
SIGMETs :     Misc.  Thunderstorms  Icing  Turbulence  Mountain Waves  Volcanic Ashes






- Airport Elevation : 90 ft
- IATA code : NTE


LFRS - Nantes

CURRENT METAR :
  • 220130Z AUTO 03004KT 350V070 CAVOK 14/14 Q1011 TEMPO 2000 BR BKN003

EXPIRED METARs :
  • 220100Z AUTO 01004KT 340V040 CAVOK 14/14 Q1011 BECMG 4000 BR BKN006
  • 220030Z AUTO VRB03KT CAVOK 14/13 Q1011 BECMG 4000 BR BKN006
  • 220000Z AUTO 36003KT 330V030 CAVOK 14/13 Q1011 BECMG 4000 BR BKN006
  • 212330Z AUTO VRB02KT CAVOK 14/14 Q1010 TEMPO 3000 BR BKN003
  • 212300Z AUTO 01004KT 330V030 CAVOK 14/14 Q1010 TEMPO 3000 BR BKN020CB

TAF TAF LFRS
Valid from the 22 at 00:00 until the 23 at 06:00 UTC


212300Z 2200/2306 VRB03KT 9999 SCT035
BECMG 2201/2203 4000 BR BKN006
PROB40
TEMPO 2203/2206 2000 BR BKN003
BECMG 2206/2208 9999 NSW BKN012
BECMG 2208/2210 34010KT BKN016
TEMPO 2210/2306 4000 SHRA BKN008 BKN020CB
PROB30
TEMPO 2211/2216 2000 TSRA BKN008 BKN015CB
ATIS : +33 2 40 05 12 74



MET'MAP, your aeronautical weather chart ! - Copyright ORBIFLY December 2007 - Disclaimer

ORBIFLY MET'MAP TEAM :

Programming & Development : Alexandra Zaïnal
Concept & original design : Baudouin d'Aumeries
Assistance for programming : Marc-Olivier Méhu
Technical & hardware support : Manuel Goepfert

Contact : metmap@orbifly.com




SOURCES & CREDITS :

   NOAA